Airfield :
LOGIN :

Register | Disclaimer

   EN    FR    IT 

 










Legend :    VFR   Marginal VFR   IFR   Intensive IFR   Very Intensive IFR
Visi :
Ceiling :
>= 8 km
>= 3000ft
5 to 8 km
1000 to 3000 ft
1500m to 5 km
500 to 1000 ft
800 to 1500m
200 to 500 ft
< 800m
< 200 ft
Symbols :   Thunderstorms  Fog  Heavy snow  Heavy precipitations  Wind > 20 kt
SIGMETs :     Misc.  Thunderstorms  Icing  Turbulence  Mountain Waves  Volcanic Ashes






- Airport Elevation : 158 ft
- IATA code : QAR


EHDL - Deelen Airbase

CURRENT METAR :
  • 082155Z AUTO 18007KT 120V240 9999 BKN260 03/01 Q1000 BLU

EXPIRED METARs :
  • 082125Z AUTO 18007KT 130V220 9999 SCT260 03/01 Q1000 BLU
  • 082115Z AUTO 18008KT 130V220 9999 BKN260/// 03/01 Q1000 BLU
  • 082055Z AUTO 18008KT 130V220 9999 BKN270 03/01 Q1000 BLU
  • 082025Z AUTO 18009KT 110V210 9999 FEW030 OVC260 03/01 Q1000 BLU
  • 081955Z AUTO 19008KT 130V230 9999 SCT024 BKN260 04/01 Q1000 WHT
  • 081925Z AUTO 17008KT 120V210 9999 FEW240 03/01 Q0999 BLU

TAF TAF EHDL
Valid from the 08 at 18:00 until the 09 at 06:00 UTC


081734Z 0818/0906 18006KT CAVOK
PROB30
TEMPO 0900/0906 3500 BR MIFG



MET'MAP, your aeronautical weather chart ! - Copyright ORBIFLY December 2007 - Disclaimer

ORBIFLY MET'MAP TEAM :

Programming & Development : Alexandra Zaïnal
Concept & original design : Baudouin d'Aumeries
Assistance for programming : Marc-Olivier Méhu
Technical & hardware support : Manuel Goepfert

Contact : metmap@orbifly.com




SOURCES & CREDITS :

   NOAA